createdAt,value
2023-01-01T00:00:19.552Z,71.97
2023-01-01T00:04:06.743Z,71.87
2023-01-01T00:07:33.629Z,71.84
2023-01-01T00:11:04.028Z,72.02
2023-01-01T00:14:30.984Z,71.85
2023-01-01T00:17:57.987Z,71.80
2023-01-01T00:21:24.359Z,71.98
2023-01-01T00:24:52.649Z,71.77
2023-01-01T00:28:19.157Z,71.96
2023-01-01T00:31:46.006Z,71.92
2023-01-01T00:35:15.730Z,71.83
2023-01-01T00:38:46.648Z,71.75
2023-01-01T00:42:15.220Z,71.80
2023-01-01T00:45:47.935Z,71.87
2023-01-01T00:49:19.440Z,71.88
2023-01-01T00:52:56.031Z,71.90
2023-01-01T00:56:23.630Z,71.90
2023-01-01T00:59:53.239Z,72.06
2023-01-01T01:03:29.281Z,71.88
2023-01-01T01:06:58.759Z,72.13
2023-01-01T01:10:26.323Z,72.22
2023-01-01T01:13:56.337Z,72.11
2023-01-01T01:17:23.233Z,72.05
2023-01-01T01:20:55.359Z,72.19
2023-01-01T01:24:21.712Z,71.98
2023-01-01T01:27:48.310Z,72.12
2023-01-01T01:31:15.443Z,72.17
2023-01-01T01:34:41.946Z,72.09
2023-01-01T01:38:08.762Z,72.21
2023-01-01T01:41:46.593Z,72.20
2023-01-01T01:45:16.075Z,72.24
2023-01-01T01:48:46.038Z,72.41
2023-01-01T01:52:13.154Z,72.36
2023-01-01T01:55:42.817Z,72.39
2023-01-01T01:59:10.338Z,72.41
2023-01-01T02:02:41.849Z,72.58
2023-01-01T02:06:09.018Z,72.46
2023-01-01T02:09:35.940Z,72.38
2023-01-01T02:13:03.880Z,72.24
2023-01-01T02:16:38.097Z,72.20
2023-01-01T02:20:20.775Z,72.33
2023-01-01T02:24:28.447Z,72.18
2023-01-01T02:28:02.567Z,72.26
2023-01-01T02:31:33.471Z,72.39
2023-01-01T02:35:24.305Z,72.17
2023-01-01T02:38:56.464Z,72.02
2023-01-01T02:42:25.563Z,71.99
2023-01-01T02:45:52.549Z,71.82
2023-01-01T02:49:21.072Z,71.88
2023-01-01T02:53:00.325Z,71.77
2023-01-01T02:56:34.889Z,71.65
2023-01-01T03:00:27.741Z,71.73
2023-01-01T03:04:05.691Z,71.52
2023-01-01T03:07:41.902Z,71.53
2023-01-01T03:11:12.623Z,71.37
2023-01-01T03:14:47.627Z,71.32
2023-01-01T03:18:19.965Z,71.32
2023-01-01T03:21:51.175Z,70.88
2023-01-01T03:25:23.204Z,70.89
2023-01-01T03:28:55.294Z,70.66
2023-01-01T03:32:45.210Z,70.70
2023-01-01T03:36:15.219Z,70.44
2023-01-01T03:39:46.895Z,70.38
2023-01-01T03:43:16.944Z,70.18
2023-01-01T03:46:45.208Z,70.19
2023-01-01T03:50:13.991Z,70.22
2023-01-01T03:53:43.650Z,70.01
2023-01-01T03:57:15.865Z,69.79
2023-01-01T04:00:48.265Z,69.73
2023-01-01T04:04:17.025Z,69.68
2023-01-01T04:11:29.462Z,69.61
2023-01-01T04:14:56.554Z,69.49
2023-01-01T04:18:23.449Z,69.48
2023-01-01T04:21:49.889Z,69.29
2023-01-01T04:25:17.749Z,69.27
2023-01-01T04:28:44.373Z,69.05
2023-01-01T04:32:10.797Z,69.21
2023-01-01T04:35:37.444Z,69.17
2023-01-01T04:39:04.426Z,69.05
2023-01-01T04:42:30.768Z,68.95
2023-01-01T04:46:00.531Z,68.83
2023-01-01T04:49:27.669Z,68.80
2023-01-01T04:52:55.223Z,68.65
2023-01-01T04:56:23.116Z,68.72
2023-01-01T04:59:49.435Z,68.57
2023-01-01T05:03:15.663Z,68.46
2023-01-01T05:06:42.205Z,68.52
2023-01-01T05:10:10.265Z,68.39
2023-01-01T05:13:37.724Z,68.43
2023-01-01T05:17:04.868Z,68.33
2023-01-01T05:20:31.345Z,68.24
2023-01-01T05:23:59.994Z,68.35
2023-01-01T05:27:26.443Z,68.23
2023-01-01T05:30:53.383Z,68.13
2023-01-01T05:34:19.580Z,68.26
2023-01-01T05:37:45.817Z,68.17
2023-01-01T05:41:14.483Z,68.06
2023-01-01T05:44:40.782Z,68.04
2023-01-01T05:48:08.258Z,67.92
2023-01-01T05:55:01.403Z,68.00
2023-01-01T05:58:28.869Z,67.87
2023-01-01T06:01:55.749Z,67.92
2023-01-01T06:05:22.097Z,67.64
2023-01-01T06:08:53.884Z,67.71
2023-01-01T06:12:20.156Z,67.43
2023-01-01T06:15:54.108Z,67.58
2023-01-01T06:19:20.536Z,67.52
2023-01-01T06:22:47.210Z,67.48
2023-01-01T06:26:15.308Z,67.47
2023-01-01T06:29:41.657Z,67.34
2023-01-01T06:33:08.477Z,67.28
2023-01-01T06:36:35.201Z,67.26
2023-01-01T06:40:01.458Z,67.15
2023-01-01T06:43:28.128Z,67.28
2023-01-01T06:46:55.209Z,67.21
2023-01-01T06:50:22.127Z,66.95
2023-01-01T06:53:48.618Z,67.06
2023-01-01T06:57:16.213Z,67.11
2023-01-01T07:00:43.639Z,66.87
2023-01-01T07:04:13.053Z,66.96
2023-01-01T07:07:43.616Z,66.92
2023-01-01T07:11:14.217Z,66.80
2023-01-01T07:14:42.810Z,66.88
2023-01-01T07:18:10.843Z,66.82
2023-01-01T07:21:43.873Z,66.80
2023-01-01T07:25:15.278Z,66.75
2023-01-01T07:28:43.074Z,66.58
2023-01-01T07:32:18.472Z,66.47
2023-01-01T07:35:46.571Z,66.42
2023-01-01T07:39:13.984Z,66.62
2023-01-01T07:42:41.915Z,66.52
2023-01-01T07:46:12.260Z,66.28
2023-01-01T07:49:39.773Z,66.33
2023-01-01T07:53:07.342Z,66.18
2023-01-01T07:56:35.517Z,66.10
2023-01-01T08:00:03.372Z,66.08
2023-01-01T08:03:39.518Z,65.93
2023-01-01T08:07:06.299Z,65.86
2023-01-01T08:10:33.927Z,65.66
2023-01-01T08:14:00.273Z,65.63
2023-01-01T08:17:28.455Z,65.73
2023-01-01T08:20:55.577Z,65.45
2023-01-01T08:24:22.067Z,65.44
2023-01-01T08:27:48.887Z,65.54
2023-01-01T08:31:15.495Z,65.41
2023-01-01T08:34:42.034Z,65.17
2023-01-01T08:38:08.601Z,65.19
2023-01-01T08:41:35.314Z,65.07
2023-01-01T08:45:01.650Z,65.07
2023-01-01T08:48:30.922Z,64.78
2023-01-01T08:51:58.249Z,64.80
2023-01-01T08:55:25.019Z,64.73
2023-01-01T08:58:51.644Z,64.61
2023-01-01T09:02:20.060Z,64.53
2023-01-01T09:05:47.158Z,64.41
2023-01-01T09:09:13.852Z,64.22
2023-01-01T09:12:40.107Z,64.22
2023-01-01T09:16:07.437Z,63.96
2023-01-01T09:19:34.055Z,63.93
2023-01-01T09:23:05.663Z,63.76
2023-01-01T09:26:32.838Z,63.51
2023-01-01T09:30:00.174Z,63.44
2023-01-01T09:33:29.200Z,63.33
2023-01-01T09:36:55.445Z,63.24
2023-01-01T09:40:30.316Z,63.06
2023-01-01T09:44:04.614Z,62.97
2023-01-01T09:47:36.741Z,62.92
2023-01-01T09:51:14.641Z,62.76
2023-01-01T09:54:47.202Z,62.80
2023-01-01T09:58:17.269Z,62.41
2023-01-01T10:01:51.837Z,62.40
2023-01-01T10:05:33.574Z,62.46
2023-01-01T10:09:18.020Z,62.34
2023-01-01T10:12:51.389Z,62.20
2023-01-01T10:16:30.715Z,62.02
2023-01-01T10:20:02.502Z,61.94
2023-01-01T10:23:33.742Z,61.81
2023-01-01T10:27:03.480Z,61.58
2023-01-01T10:30:31.365Z,61.56
2023-01-01T10:33:58.840Z,61.44
2023-01-01T10:37:25.693Z,61.31
2023-01-01T10:40:55.416Z,61.35
2023-01-01T10:44:29.031Z,61.14
2023-01-01T10:48:27.961Z,61.17
2023-01-01T10:51:55.849Z,61.20
2023-01-01T10:55:27.229Z,61.00
2023-01-01T10:58:55.545Z,60.89
2023-01-01T11:02:24.989Z,60.85
2023-01-01T11:06:12.350Z,60.77
2023-01-01T11:09:39.876Z,60.81
2023-01-01T11:13:16.005Z,60.65
2023-01-01T11:16:47.207Z,60.59
2023-01-01T11:20:23.889Z,60.51
2023-01-01T11:23:54.166Z,60.39
2023-01-01T11:27:26.923Z,60.41
2023-01-01T11:31:07.333Z,60.24
2023-01-01T11:34:37.952Z,60.25
2023-01-01T11:38:06.352Z,60.20
2023-01-01T11:41:45.027Z,60.12
2023-01-01T11:45:26.048Z,60.20
2023-01-01T11:49:03.244Z,60.06
2023-01-01T11:52:59.603Z,60.03
2023-01-01T11:56:50.632Z,60.09
2023-01-01T12:00:25.213Z,59.98
2023-01-01T12:03:56.424Z,60.09
2023-01-01T12:07:29.754Z,60.01
2023-01-01T12:11:00.120Z,59.79
2023-01-01T12:14:34.806Z,59.86
2023-01-01T12:18:07.964Z,59.74
2023-01-01T12:21:37.370Z,59.69
2023-01-01T12:25:05.375Z,59.71
2023-01-01T12:28:46.336Z,59.72
2023-01-01T12:32:22.808Z,59.76
2023-01-01T12:36:10.102Z,59.75
2023-01-01T12:40:21.235Z,59.76
2023-01-01T12:44:06.312Z,59.76
2023-01-01T12:47:43.891Z,59.66
2023-01-01T12:51:24.272Z,59.68
2023-01-01T12:55:25.235Z,59.57
2023-01-01T12:58:58.099Z,59.64
2023-01-01T13:02:35.905Z,59.64
2023-01-01T13:06:09.987Z,59.75
2023-01-01T13:09:40.133Z,59.67
2023-01-01T13:13:08.029Z,59.63
2023-01-01T13:16:53.103Z,59.61
2023-01-01T13:20:26.791Z,59.67
2023-01-01T13:24:19.684Z,59.54
2023-01-01T13:28:16.529Z,59.61
2023-01-01T13:32:09.265Z,59.63
2023-01-01T13:35:37.817Z,59.54
2023-01-01T13:39:05.329Z,59.54
2023-01-01T13:42:52.606Z,59.61
2023-01-01T13:46:20.835Z,59.47
2023-01-01T13:50:13.798Z,59.52
2023-01-01T13:54:09.800Z,59.44
2023-01-01T13:58:16.876Z,59.36
2023-01-01T14:01:55.263Z,59.35
2023-01-01T14:05:29.408Z,59.43
2023-01-01T14:09:07.487Z,59.46
2023-01-01T14:12:40.028Z,59.45
2023-01-01T14:16:14.060Z,59.35
2023-01-01T14:19:43.209Z,59.40
2023-01-01T14:23:16.851Z,59.54
2023-01-01T14:26:46.926Z,59.39
2023-01-01T14:30:23.201Z,59.41
2023-01-01T14:33:57.934Z,59.49
2023-01-01T14:37:26.571Z,59.46
2023-01-01T14:41:05.007Z,59.58
2023-01-01T14:44:41.026Z,59.54
2023-01-01T14:48:19.787Z,59.59
2023-01-01T14:51:59.975Z,59.55
2023-01-01T14:55:34.861Z,59.60
2023-01-01T14:59:11.770Z,59.44
2023-01-01T15:02:45.397Z,59.64
2023-01-01T15:06:25.533Z,59.54
2023-01-01T15:09:54.439Z,59.50
2023-01-01T15:13:31.797Z,59.53
2023-01-01T15:17:08.566Z,59.54
2023-01-01T15:20:38.037Z,59.62
2023-01-01T15:24:13.188Z,59.56
2023-01-01T15:27:46.429Z,59.69
2023-01-01T15:31:17.422Z,59.74
2023-01-01T15:34:50.401Z,59.70
2023-01-01T15:38:22.557Z,59.80
2023-01-01T15:41:53.140Z,59.84
2023-01-01T15:45:30.660Z,59.86
2023-01-01T15:49:02.685Z,59.97
2023-01-01T15:52:37.659Z,59.98
2023-01-01T15:56:14.486Z,60.07
2023-01-01T15:59:47.877Z,60.12
2023-01-01T16:03:22.507Z,60.09
2023-01-01T16:06:56.224Z,60.13
2023-01-01T16:10:25.082Z,60.16
2023-01-01T16:13:51.888Z,60.10
2023-01-01T16:17:21.089Z,60.22
2023-01-01T16:20:48.184Z,60.26
2023-01-01T16:24:16.785Z,60.32
2023-01-01T16:27:44.091Z,60.34
2023-01-01T16:31:15.813Z,60.38
2023-01-01T16:34:43.129Z,60.48
2023-01-01T16:38:11.594Z,60.57
2023-01-01T16:41:43.621Z,60.53
2023-01-01T16:45:18.394Z,60.69
2023-01-01T16:48:46.904Z,60.73
2023-01-01T16:52:13.973Z,60.76
2023-01-01T16:55:54.788Z,60.99
2023-01-01T16:59:31.571Z,60.92
2023-01-01T17:03:01.023Z,61.06
2023-01-01T17:06:28.870Z,60.94
2023-01-01T17:09:56.981Z,61.05
2023-01-01T17:13:23.458Z,61.02
2023-01-01T17:16:52.245Z,61.12
2023-01-01T17:20:19.787Z,60.99
2023-01-01T17:23:46.874Z,61.06
2023-01-01T17:27:13.849Z,61.14
2023-01-01T17:30:48.758Z,61.09
2023-01-01T17:34:20.637Z,61.34
2023-01-01T17:37:47.383Z,61.19
2023-01-01T17:41:18.994Z,61.42
2023-01-01T17:44:45.700Z,61.37
2023-01-01T17:48:11.984Z,61.56
2023-01-01T17:51:47.177Z,61.55
2023-01-01T17:55:14.097Z,61.55
2023-01-01T17:58:41.087Z,61.51
2023-01-01T18:02:12.121Z,61.66
2023-01-01T18:05:38.683Z,61.74
2023-01-01T18:09:08.327Z,61.74
2023-01-01T18:12:36.657Z,61.74
2023-01-01T18:16:04.762Z,61.95
2023-01-01T18:19:32.731Z,61.95
2023-01-01T18:22:59.586Z,62.07
2023-01-01T18:26:27.996Z,62.23
2023-01-01T18:29:56.482Z,62.34
2023-01-01T18:33:23.243Z,62.18
2023-01-01T18:37:02.644Z,62.22
2023-01-01T18:40:35.832Z,62.34
2023-01-01T18:44:03.828Z,62.26
2023-01-01T18:47:32.340Z,62.51
2023-01-01T18:51:02.878Z,62.39
2023-01-01T18:54:33.906Z,62.41
2023-01-01T18:58:06.809Z,62.70
2023-01-01T19:01:35.875Z,62.78
2023-01-01T19:05:19.630Z,62.84
2023-01-01T19:08:45.997Z,63.04
2023-01-01T19:12:20.315Z,62.86
2023-01-01T19:15:51.428Z,63.12
2023-01-01T19:19:23.857Z,62.98
2023-01-01T19:22:51.118Z,63.35
2023-01-01T19:26:25.234Z,63.47
2023-01-01T19:29:53.323Z,63.61
2023-01-01T19:33:20.439Z,63.67
2023-01-01T19:36:47.780Z,63.51
2023-01-01T19:40:15.983Z,63.55
2023-01-01T19:43:43.478Z,63.72
2023-01-01T19:47:10.872Z,63.62
2023-01-01T19:50:39.014Z,63.61
2023-01-01T19:54:07.369Z,63.73
2023-01-01T19:57:34.177Z,63.74
2023-01-01T20:01:00.738Z,63.87
2023-01-01T20:04:27.290Z,63.82
2023-01-01T20:07:55.369Z,63.78
2023-01-01T20:11:22.263Z,63.96
2023-01-01T20:14:50.574Z,63.93
2023-01-01T20:18:17.511Z,63.94
2023-01-01T20:22:04.135Z,64.05
2023-01-01T20:25:30.585Z,64.27
2023-01-01T20:29:17.236Z,64.25
2023-01-01T20:32:43.874Z,64.26
2023-01-01T20:36:25.692Z,64.30
2023-01-01T20:39:52.095Z,64.50
2023-01-01T20:43:19.942Z,64.52
2023-01-01T20:46:48.379Z,64.40
2023-01-01T20:50:15.135Z,64.53
2023-01-01T20:53:41.838Z,64.53
2023-01-01T20:57:11.282Z,64.69
2023-01-01T21:00:37.774Z,64.48
2023-01-01T21:04:04.168Z,64.58
2023-01-01T21:07:30.530Z,64.55
2023-01-01T21:10:57.388Z,64.57
2023-01-01T21:14:27.101Z,64.50
2023-01-01T21:17:53.483Z,64.75
2023-01-01T21:21:23.328Z,64.88
2023-01-01T21:24:53.949Z,64.81
2023-01-01T21:28:21.186Z,64.72
2023-01-01T21:31:47.766Z,64.91
2023-01-01T21:35:23.495Z,64.97
2023-01-01T21:38:51.975Z,64.94
2023-01-01T21:42:26.054Z,64.96
2023-01-01T21:45:53.547Z,65.01
2023-01-01T21:49:24.266Z,65.16
2023-01-01T21:52:52.165Z,65.13
2023-01-01T21:56:30.662Z,65.19
2023-01-01T21:59:59.914Z,64.94
2023-01-01T22:03:30.184Z,64.85
2023-01-01T22:07:01.259Z,65.06
2023-01-01T22:10:32.975Z,65.15
2023-01-01T22:14:00.715Z,65.21
2023-01-01T22:17:35.010Z,65.15
2023-01-01T22:21:03.805Z,65.37
2023-01-01T22:24:37.416Z,65.14
2023-01-01T22:28:18.285Z,65.25
2023-01-01T22:31:49.374Z,65.27
2023-01-01T22:35:24.196Z,65.34
2023-01-01T22:38:51.087Z,65.49
2023-01-01T22:42:19.631Z,65.65
2023-01-01T22:45:47.872Z,65.68
2023-01-01T22:49:20.732Z,65.66
2023-01-01T22:52:46.010Z,65.81
2023-01-01T22:56:13.200Z,65.79
2023-01-01T22:59:40.045Z,65.81
2023-01-01T23:03:06.943Z,65.81
2023-01-01T23:06:35.112Z,65.69
2023-01-01T23:10:03.093Z,65.58
2023-01-01T23:13:47.286Z,65.64
2023-01-01T23:17:14.113Z,65.77
2023-01-01T23:20:40.405Z,65.46
2023-01-01T23:24:13.157Z,65.72
2023-01-01T23:27:41.390Z,65.72
2023-01-01T23:31:12.562Z,65.78
2023-01-01T23:34:39.501Z,65.85
2023-01-01T23:38:06.386Z,65.89
2023-01-01T23:41:35.686Z,66.03
2023-01-01T23:45:02.000Z,66.17
2023-01-01T23:48:29.897Z,66.36
2023-01-01T23:51:57.524Z,66.37
2023-01-01T23:55:23.758Z,66.34
2023-01-01T23:58:50.346Z,66.37
